createdAt,value
2018-11-06T00:02:00.486Z,80.30
2018-11-06T00:04:33.722Z,80.30
2018-11-06T00:07:01.210Z,80.20
2018-11-06T00:09:28.708Z,80.20
2018-11-06T00:11:56.093Z,80.20
2018-11-06T00:14:23.462Z,80.20
2018-11-06T00:16:50.857Z,80.20
2018-11-06T00:19:24.346Z,80.20
2018-11-06T00:21:52.784Z,81.00
2018-11-06T00:24:20.280Z,80.30
2018-11-06T00:26:47.682Z,80.40
2018-11-06T00:29:15.082Z,80.40
2018-11-06T00:31:48.571Z,80.40
2018-11-06T00:34:22.190Z,80.40
2018-11-06T00:36:49.672Z,80.30
2018-11-06T00:39:18.896Z,80.40
2018-11-06T00:41:46.384Z,80.30
2018-11-06T00:44:14.686Z,80.40
2018-11-06T00:46:42.943Z,80.30
2018-11-06T00:49:10.286Z,80.40
2018-11-06T00:51:37.733Z,80.40
2018-11-06T00:54:05.505Z,80.40
2018-11-06T00:56:32.865Z,80.40
2018-11-06T00:59:06.547Z,80.40
2018-11-06T01:01:33.912Z,80.40
2018-11-06T01:04:08.883Z,80.50
2018-11-06T01:06:36.492Z,80.50
2018-11-06T01:09:05.250Z,80.50
2018-11-06T01:11:32.594Z,80.50
2018-11-06T01:14:00.957Z,80.50
2018-11-06T01:16:28.377Z,80.50
2018-11-06T01:19:02.034Z,80.60
2018-11-06T01:21:29.454Z,80.60
2018-11-06T01:23:56.831Z,80.60
2018-11-06T01:26:25.171Z,80.60
2018-11-06T01:28:52.533Z,80.60
2018-11-06T01:31:19.966Z,80.60
2018-11-06T01:33:53.361Z,80.60
2018-11-06T01:36:20.839Z,81.30
2018-11-06T01:38:48.177Z,80.60
2018-11-06T01:41:15.713Z,80.70
2018-11-06T01:43:44.108Z,80.70
2018-11-06T01:46:17.850Z,80.60
2018-11-06T01:48:45.213Z,80.70
2018-11-06T01:51:12.719Z,80.70
2018-11-06T01:53:40.105Z,80.70
2018-11-06T01:56:07.508Z,81.40
2018-11-06T01:58:41.173Z,80.80
2018-11-06T02:01:08.521Z,80.70
2018-11-06T02:03:36.044Z,80.80
2018-11-06T02:06:03.872Z,80.80
2018-11-06T02:08:31.184Z,80.80
2018-11-06T02:10:58.554Z,80.70
2018-11-06T02:13:26.057Z,80.70
2018-11-06T02:15:54.280Z,80.70
2018-11-06T02:18:21.617Z,80.70
2018-11-06T02:20:49.125Z,80.70
2018-11-06T02:23:22.831Z,80.70
2018-11-06T02:25:50.187Z,80.70
2018-11-06T02:28:17.500Z,80.60
2018-11-06T02:30:44.877Z,80.50
2018-11-06T02:34:38.105Z,80.40
2018-11-06T02:37:05.586Z,80.30
2018-11-06T02:39:32.965Z,80.10
2018-11-06T02:42:02.275Z,80.30
2018-11-06T02:44:30.341Z,80.20
2018-11-06T02:46:57.690Z,80.20
2018-11-06T02:49:25.130Z,80.20
2018-11-06T02:51:57.491Z,80.20
2018-11-06T02:54:24.886Z,80.00
2018-11-06T02:56:58.376Z,80.00
2018-11-06T02:59:25.696Z,80.00
2018-11-06T03:01:59.306Z,80.00
2018-11-06T03:04:26.661Z,79.90
2018-11-06T03:06:57.017Z,79.80
2018-11-06T03:09:24.357Z,79.80
2018-11-06T03:11:51.738Z,79.80
2018-11-06T03:14:19.086Z,79.80
2018-11-06T03:16:46.443Z,79.80
2018-11-06T03:19:13.777Z,79.80
2018-11-06T03:21:47.274Z,79.70
2018-11-06T03:24:14.611Z,79.70
2018-11-06T03:26:41.948Z,79.60
2018-11-06T03:29:09.238Z,79.60
2018-11-06T03:31:36.625Z,79.50
2018-11-06T03:36:38.389Z,79.50
2018-11-06T03:39:07.652Z,79.40
2018-11-06T03:41:35.040Z,79.40
2018-11-06T03:44:02.548Z,79.30
2018-11-06T03:46:30.137Z,79.40
2018-11-06T03:48:57.503Z,79.30
2018-11-06T03:51:24.844Z,79.30
2018-11-06T03:53:53.058Z,79.30
2018-11-06T03:56:26.681Z,79.30
2018-11-06T03:58:54.021Z,79.30
2018-11-06T04:01:22.161Z,79.20
2018-11-06T04:03:49.564Z,79.20
2018-11-06T04:06:16.881Z,79.30
2018-11-06T04:08:44.239Z,79.20
2018-11-06T04:11:11.663Z,79.20
2018-11-06T04:13:42.881Z,79.30
2018-11-06T04:16:10.237Z,79.10
2018-11-06T04:18:37.628Z,79.00
2018-11-06T04:21:05.065Z,79.00
2018-11-06T04:23:32.492Z,79.10
2018-11-06T04:26:00.763Z,79.00
2018-11-06T04:28:28.144Z,78.90
2018-11-06T04:30:55.532Z,78.90
2018-11-06T04:33:22.990Z,78.90
2018-11-06T04:35:50.395Z,79.70
2018-11-06T04:38:17.730Z,79.00
2018-11-06T04:40:51.378Z,78.90
2018-11-06T04:43:25.005Z,78.90
2018-11-06T04:45:52.532Z,78.90
2018-11-06T04:48:19.879Z,78.90
2018-11-06T04:50:47.276Z,78.80
2018-11-06T04:53:14.616Z,78.80
2018-11-06T04:55:42.024Z,78.90
2018-11-06T04:58:09.473Z,78.90
2018-11-06T05:00:36.826Z,78.90
2018-11-06T05:03:10.435Z,78.80
2018-11-06T05:05:37.850Z,78.80
2018-11-06T05:08:05.261Z,78.70
2018-11-06T05:10:34.523Z,78.70
2018-11-06T05:13:08.214Z,78.80
2018-11-06T05:15:35.594Z,78.80
2018-11-06T05:18:03.017Z,78.80
2018-11-06T05:20:34.521Z,78.70
2018-11-06T05:23:01.927Z,78.80
2018-11-06T05:25:29.402Z,78.80
2018-11-06T05:27:56.755Z,78.90
2018-11-06T05:30:24.090Z,78.80
2018-11-06T05:32:58.905Z,79.60
2018-11-06T05:35:32.465Z,78.90
2018-11-06T05:38:06.197Z,78.80
2018-11-06T05:40:48.373Z,78.80
2018-11-06T05:43:16.755Z,78.80
2018-11-06T05:45:44.359Z,78.90
2018-11-06T05:48:12.044Z,79.00
2018-11-06T05:50:39.813Z,79.00
2018-11-06T05:53:07.421Z,79.00
2018-11-06T05:55:34.819Z,79.00
2018-11-06T05:58:02.310Z,79.00
2018-11-06T06:00:29.747Z,79.00
2018-11-06T06:02:57.197Z,79.00
2018-11-06T06:05:24.553Z,79.00
2018-11-06T06:07:51.966Z,79.10
2018-11-06T06:10:19.333Z,79.10
2018-11-06T06:12:47.701Z,79.30
2018-11-06T06:15:15.088Z,79.30
2018-11-06T06:17:44.308Z,79.50
2018-11-06T06:20:11.634Z,79.60
2018-11-06T06:22:39.136Z,79.70
2018-11-06T06:25:06.778Z,79.70
2018-11-06T06:27:34.169Z,79.90
2018-11-06T06:30:01.597Z,80.00
2018-11-06T06:35:03.422Z,80.00
2018-11-06T06:37:31.694Z,80.00
2018-11-06T06:40:07.163Z,80.00
2018-11-06T06:42:41.336Z,80.70
2018-11-06T06:45:10.529Z,80.70
2018-11-06T06:47:37.952Z,80.00
2018-11-06T06:50:07.193Z,80.10
2018-11-06T06:52:34.674Z,80.20
2018-11-06T06:55:02.371Z,80.20
2018-11-06T06:57:29.745Z,80.20
2018-11-06T06:59:57.130Z,80.30
2018-11-06T07:02:24.504Z,80.30
2018-11-06T07:04:58.241Z,80.40
2018-11-06T07:07:25.607Z,80.40
2018-11-06T07:09:53.018Z,80.40
2018-11-06T07:12:21.293Z,80.50
2018-11-06T07:14:48.701Z,81.20
2018-11-06T07:17:16.865Z,80.60
2018-11-06T07:19:44.265Z,80.80
2018-11-06T07:22:11.690Z,80.80
2018-11-06T07:24:45.605Z,80.80
2018-11-06T07:27:19.174Z,80.80
2018-11-06T07:29:52.885Z,81.00
2018-11-06T07:32:20.278Z,81.10
2018-11-06T07:34:47.790Z,81.20
2018-11-06T07:37:15.052Z,81.20
2018-11-06T07:39:42.507Z,81.40
2018-11-06T07:42:10.177Z,81.30
2018-11-06T07:44:37.577Z,81.30
2018-11-06T07:47:05.113Z,81.50
2018-11-06T07:49:32.568Z,81.50
2018-11-06T07:51:59.951Z,81.50
2018-11-06T07:54:27.413Z,81.50
2018-11-06T07:56:54.759Z,81.60
2018-11-06T07:59:22.218Z,81.70
2018-11-06T08:01:55.892Z,81.80
2018-11-06T08:04:23.408Z,81.90
2018-11-06T08:06:50.732Z,81.90
2018-11-06T08:09:18.968Z,82.00
2018-11-06T08:11:46.272Z,82.10
2018-11-06T08:14:13.789Z,82.20
2018-11-06T08:16:41.186Z,82.30
2018-11-06T08:19:14.642Z,82.30
2018-11-06T08:21:42.023Z,82.40
2018-11-06T08:24:09.446Z,82.50
2018-11-06T08:26:37.749Z,82.70
2018-11-06T08:29:05.122Z,82.70
2018-11-06T08:31:32.780Z,82.70
2018-11-06T08:33:59.869Z,82.90
2018-11-06T08:36:29.303Z,82.90
2018-11-06T08:38:56.590Z,83.00
2018-11-06T08:41:23.956Z,83.10
2018-11-06T08:43:52.074Z,83.10
2018-11-06T08:46:20.225Z,83.00
2018-11-06T08:48:53.879Z,83.10
2018-11-06T08:51:21.323Z,83.00
2018-11-06T08:53:48.727Z,83.00
2018-11-06T08:56:16.885Z,82.90
2018-11-06T08:58:44.284Z,83.00
2018-11-06T09:01:11.637Z,83.10
2018-11-06T09:03:38.977Z,83.10
2018-11-06T09:06:06.345Z,83.30
2018-11-06T09:08:33.729Z,83.30
2018-11-06T09:11:01.180Z,83.40
2018-11-06T09:13:28.686Z,83.40
2018-11-06T09:16:02.305Z,83.40
2018-11-06T09:18:36.059Z,83.50
2018-11-06T09:21:03.573Z,83.40
2018-11-06T09:23:31.738Z,83.50
2018-11-06T09:25:59.913Z,83.50
2018-11-06T09:28:28.129Z,83.50
2018-11-06T09:30:55.587Z,83.50
2018-11-06T09:33:23.002Z,82.40
2018-11-06T09:35:56.617Z,82.40
2018-11-06T09:38:30.949Z,82.50
2018-11-06T09:41:05.047Z,82.60
2018-11-06T09:43:39.119Z,82.60
2018-11-06T09:46:06.602Z,82.50
2018-11-06T09:48:40.243Z,82.50
2018-11-06T09:51:07.659Z,82.50
2018-11-06T09:53:41.269Z,82.50
2018-11-06T09:56:08.742Z,82.50
2018-11-06T09:58:36.138Z,82.40
2018-11-06T10:01:09.732Z,82.40
2018-11-06T10:03:37.090Z,82.40
2018-11-06T10:06:11.327Z,82.40
2018-11-06T10:08:38.746Z,82.50
2018-11-06T10:11:12.387Z,82.50
2018-11-06T10:13:39.765Z,82.50
2018-11-06T10:16:08.167Z,82.50
2018-11-06T10:18:35.685Z,82.60
2018-11-06T10:21:09.456Z,82.60
2018-11-06T10:23:43.434Z,82.50
2018-11-06T10:26:10.993Z,82.50
2018-11-06T10:28:39.192Z,82.40
2018-11-06T10:31:07.422Z,82.20
2018-11-06T10:33:35.369Z,82.30
2018-11-06T10:36:02.981Z,82.40
2018-11-06T10:38:36.614Z,83.00
2018-11-06T10:41:04.441Z,82.30
2018-11-06T10:43:32.959Z,82.30
2018-11-06T10:46:00.422Z,82.30
2018-11-06T10:48:27.896Z,82.30
2018-11-06T10:50:56.124Z,82.50
2018-11-06T10:53:23.600Z,82.50
2018-11-06T10:55:51.053Z,82.60
2018-11-06T10:58:18.653Z,82.70
2018-11-06T11:00:52.585Z,82.70
2018-11-06T11:03:25.634Z,82.60
2018-11-06T11:05:53.060Z,82.50
2018-11-06T11:08:20.470Z,82.40
2018-11-06T11:10:47.895Z,82.30
2018-11-06T11:13:15.457Z,82.20
2018-11-06T11:15:49.029Z,82.20
2018-11-06T11:18:16.511Z,82.20
2018-11-06T11:20:43.965Z,82.20
2018-11-06T11:23:11.442Z,82.20
2018-11-06T11:25:38.950Z,82.20
2018-11-06T11:28:06.412Z,82.30
2018-11-06T11:30:35.802Z,82.40
2018-11-06T11:33:09.434Z,82.40
2018-11-06T11:35:36.878Z,82.40
2018-11-06T11:38:04.403Z,82.20
2018-11-06T11:40:38.865Z,82.10
2018-11-06T11:43:06.354Z,82.10
2018-11-06T11:45:34.486Z,82.10
2018-11-06T11:48:01.859Z,82.80
2018-11-06T11:50:29.328Z,81.90
2018-11-06T11:52:56.698Z,81.90
2018-11-06T11:55:24.109Z,81.90
2018-11-06T11:57:57.593Z,81.80
2018-11-06T12:00:27.280Z,81.70
2018-11-06T12:02:55.055Z,81.70
2018-11-06T12:05:23.306Z,81.60
2018-11-06T12:07:50.781Z,81.60
2018-11-06T12:10:18.157Z,81.50
2018-11-06T12:12:51.856Z,81.30
2018-11-06T12:15:19.221Z,81.00
2018-11-06T12:17:47.070Z,80.80
2018-11-06T12:20:15.950Z,80.50
2018-11-06T12:22:49.504Z,80.90
2018-11-06T12:25:17.286Z,81.00
2018-11-06T12:27:44.409Z,81.10
2018-11-06T12:30:18.120Z,81.20
2018-11-06T12:34:10.133Z,81.00
2018-11-06T12:36:37.709Z,81.10
2018-11-06T12:39:06.225Z,80.80
2018-11-06T12:41:33.657Z,80.60
2018-11-06T12:44:07.954Z,80.50
2018-11-06T12:46:35.785Z,80.50
2018-11-06T12:49:03.893Z,80.60
2018-11-06T12:51:31.241Z,79.50
2018-11-06T12:53:58.755Z,79.80
2018-11-06T12:56:32.448Z,80.00
2018-11-06T12:59:00.116Z,79.90
2018-11-06T13:01:27.543Z,80.00
2018-11-06T13:04:01.286Z,80.80
2018-11-06T13:06:28.784Z,80.10
2018-11-06T13:09:02.404Z,80.10
2018-11-06T13:11:30.706Z,80.20
2018-11-06T13:14:04.321Z,79.90
2018-11-06T13:16:39.294Z,79.80
2018-11-06T13:19:06.943Z,80.10
2018-11-06T13:21:34.399Z,80.80
2018-11-06T13:24:01.968Z,80.40
2018-11-06T13:26:29.544Z,80.50
2018-11-06T13:28:56.898Z,80.30
2018-11-06T13:31:24.370Z,80.00
2018-11-06T13:33:51.817Z,79.50
2018-11-06T13:36:19.189Z,79.50
2018-11-06T13:38:46.637Z,79.80
2018-11-06T13:41:14.104Z,79.80
2018-11-06T13:43:48.065Z,79.60
2018-11-06T13:46:15.533Z,79.30
2018-11-06T13:48:42.940Z,78.90
2018-11-06T13:51:10.358Z,78.40
2018-11-06T13:53:44.347Z,77.90
2018-11-06T13:56:11.801Z,77.80
2018-11-06T13:58:45.438Z,77.80
2018-11-06T14:01:12.847Z,77.50
2018-11-06T14:03:40.230Z,77.30
2018-11-06T14:06:07.703Z,77.30
2018-11-06T14:08:35.149Z,77.10
2018-11-06T14:11:02.654Z,77.10
2018-11-06T14:13:31.015Z,76.90
2018-11-06T14:16:05.161Z,77.00
2018-11-06T14:18:32.585Z,76.90
2018-11-06T14:21:00.101Z,77.00
2018-11-06T14:23:33.819Z,76.80
2018-11-06T14:26:01.330Z,76.80
2018-11-06T14:28:28.706Z,76.80
2018-11-06T14:31:02.283Z,76.70
2018-11-06T14:33:29.722Z,76.60
2018-11-06T14:35:57.189Z,76.50
2018-11-06T14:38:30.773Z,76.40
2018-11-06T14:40:58.230Z,76.50
2018-11-06T14:43:31.853Z,76.40
2018-11-06T14:45:59.203Z,76.60
2018-11-06T14:48:28.353Z,76.40
2018-11-06T14:51:01.729Z,76.30
2018-11-06T14:53:29.267Z,76.30
2018-11-06T14:55:56.843Z,76.00
2018-11-06T14:58:30.384Z,75.80
2018-11-06T15:01:04.026Z,75.70
2018-11-06T15:03:31.515Z,75.60
2018-11-06T15:06:00.057Z,75.50
2018-11-06T15:08:27.503Z,75.40
2018-11-06T15:10:54.965Z,75.40
2018-11-06T15:13:28.527Z,75.30
2018-11-06T15:16:02.199Z,75.20
2018-11-06T15:18:29.617Z,75.00
2018-11-06T15:20:57.218Z,74.80
2018-11-06T15:23:30.723Z,74.80
2018-11-06T15:25:58.222Z,74.80
2018-11-06T15:28:31.843Z,74.70
2018-11-06T15:30:59.228Z,74.60
2018-11-06T15:33:32.896Z,74.60
2018-11-06T15:36:06.622Z,74.60
2018-11-06T15:38:34.166Z,74.70
2018-11-06T15:41:08.957Z,74.60
2018-11-06T15:43:36.918Z,74.60
2018-11-06T15:46:10.350Z,74.60
2018-11-06T15:48:44.155Z,74.60
2018-11-06T15:51:17.749Z,74.50
2018-11-06T15:53:45.258Z,74.50
2018-11-06T15:56:18.803Z,74.50
2018-11-06T15:58:46.282Z,74.60
2018-11-06T16:01:13.715Z,74.50
2018-11-06T16:03:47.412Z,74.60
2018-11-06T16:06:14.866Z,74.50
2018-11-06T16:08:42.368Z,74.60
2018-11-06T16:11:09.839Z,74.60
2018-11-06T16:13:39.451Z,74.50
2018-11-06T16:16:07.120Z,74.50
2018-11-06T16:18:35.397Z,74.60
2018-11-06T16:21:02.914Z,74.50
2018-11-06T16:23:36.472Z,74.60
2018-11-06T16:26:04.022Z,74.70
2018-11-06T16:28:33.242Z,74.70
2018-11-06T16:31:00.659Z,75.20
2018-11-06T16:33:28.050Z,74.60
2018-11-06T16:35:56.453Z,74.60
2018-11-06T16:38:23.949Z,74.60
2018-11-06T16:40:57.610Z,74.50
2018-11-06T16:43:25.093Z,74.30
2018-11-06T16:45:54.364Z,74.30
2018-11-06T16:48:22.938Z,75.10
2018-11-06T16:50:56.719Z,74.40
2018-11-06T16:53:24.214Z,74.30
2018-11-06T16:55:57.790Z,74.20
2018-11-06T16:58:31.438Z,74.20
2018-11-06T17:00:59.129Z,74.10
2018-11-06T17:03:26.430Z,74.20
2018-11-06T17:06:00.211Z,74.10
2018-11-06T17:08:33.883Z,74.10
2018-11-06T17:11:01.317Z,74.20
2018-11-06T17:13:29.446Z,74.20
2018-11-06T17:15:56.808Z,74.20
2018-11-06T17:18:24.345Z,74.20
2018-11-06T17:20:57.973Z,74.20
2018-11-06T17:23:25.407Z,74.20
2018-11-06T17:27:17.651Z,74.30
2018-11-06T17:29:45.149Z,74.20
2018-11-06T17:32:12.644Z,74.10
2018-11-06T17:34:40.125Z,74.10
2018-11-06T17:37:13.810Z,74.20
2018-11-06T17:39:42.190Z,74.20
2018-11-06T17:42:09.525Z,74.20
2018-11-06T17:44:43.105Z,74.10
2018-11-06T17:47:10.591Z,74.10
2018-11-06T17:49:38.076Z,74.10
2018-11-06T17:52:05.567Z,74.00
2018-11-06T17:54:34.058Z,74.00
2018-11-06T17:57:01.588Z,73.90
2018-11-06T17:59:35.224Z,74.00
2018-11-06T18:02:08.892Z,74.00
2018-11-06T18:04:42.475Z,74.10
2018-11-06T18:07:16.126Z,74.00
2018-11-06T18:09:44.496Z,74.00
2018-11-06T18:12:11.994Z,74.00
2018-11-06T18:14:45.616Z,74.10
2018-11-06T18:17:13.077Z,74.90
2018-11-06T18:19:40.588Z,74.10
2018-11-06T18:22:14.338Z,74.30
2018-11-06T18:24:41.851Z,74.40
2018-11-06T18:27:09.314Z,74.50
2018-11-06T18:29:36.845Z,74.60
2018-11-06T18:32:04.559Z,74.50
2018-11-06T18:34:32.212Z,74.50
2018-11-06T18:36:59.727Z,74.60
2018-11-06T18:39:27.251Z,74.60
2018-11-06T18:41:54.687Z,74.50
2018-11-06T18:44:28.363Z,74.50
2018-11-06T18:46:55.833Z,74.50
2018-11-06T18:49:23.241Z,74.60
2018-11-06T18:51:57.932Z,74.50
2018-11-06T18:54:26.256Z,74.50
2018-11-06T18:56:59.978Z,74.50
2018-11-06T18:59:33.537Z,74.40
2018-11-06T19:02:02.051Z,74.50
2018-11-06T19:04:35.628Z,74.50
2018-11-06T19:07:03.123Z,75.40
2018-11-06T19:09:30.606Z,75.60
2018-11-06T19:12:04.470Z,75.00
2018-11-06T19:14:31.937Z,74.90
2018-11-06T19:17:05.923Z,75.00
2018-11-06T19:19:39.411Z,75.00
2018-11-06T19:22:13.113Z,75.70
2018-11-06T19:24:40.529Z,75.00
2018-11-06T19:27:08.086Z,75.00
2018-11-06T19:29:35.690Z,75.00
2018-11-06T19:32:04.400Z,75.10
2018-11-06T19:34:31.977Z,75.20
2018-11-06T19:37:05.777Z,75.70
2018-11-06T19:39:33.202Z,75.30
2018-11-06T19:42:00.957Z,75.20
2018-11-06T19:44:28.453Z,75.30
2018-11-06T19:46:56.018Z,75.30
2018-11-06T19:49:23.490Z,75.30
2018-11-06T19:51:51.821Z,75.20
2018-11-06T19:54:20.410Z,75.30
2018-11-06T19:56:47.918Z,75.20
2018-11-06T19:59:21.576Z,75.10
2018-11-06T20:01:49.109Z,75.20
2018-11-06T20:04:16.643Z,75.30
2018-11-06T20:06:44.101Z,75.40
2018-11-06T20:09:17.849Z,75.50
2018-11-06T20:11:45.482Z,75.60
2018-11-06T20:14:12.989Z,75.50
2018-11-06T20:16:40.588Z,75.50
2018-11-06T20:19:14.440Z,75.60
2018-11-06T20:21:48.271Z,75.60
2018-11-06T20:24:15.931Z,75.80
2018-11-06T20:26:43.346Z,75.70
2018-11-06T20:29:10.775Z,75.80
2018-11-06T20:31:44.340Z,75.80
2018-11-06T20:34:12.762Z,75.90
2018-11-06T20:36:40.206Z,75.90
2018-11-06T20:39:13.997Z,75.90
2018-11-06T20:41:42.256Z,75.80
2018-11-06T20:44:16.082Z,75.90
2018-11-06T20:46:43.565Z,75.90
2018-11-06T20:49:11.022Z,75.90
2018-11-06T20:51:44.744Z,75.90
2018-11-06T20:54:12.287Z,75.80
2018-11-06T20:56:39.825Z,75.90
2018-11-06T20:59:08.395Z,76.00
2018-11-06T21:01:37.038Z,75.90
2018-11-06T21:04:05.896Z,76.00
2018-11-06T21:06:34.551Z,75.90
2018-11-06T21:09:02.916Z,75.80
2018-11-06T21:11:30.991Z,75.80
2018-11-06T21:13:58.585Z,75.70
2018-11-06T21:16:26.786Z,75.90
2018-11-06T21:18:54.283Z,75.90
2018-11-06T21:21:27.912Z,76.00
2018-11-06T21:23:55.481Z,75.90
2018-11-06T21:26:23.060Z,75.80
2018-11-06T21:28:50.587Z,75.80
2018-11-06T21:31:18.125Z,75.90
2018-11-06T21:33:46.521Z,75.80
2018-11-06T21:36:13.981Z,75.90
2018-11-06T21:38:41.445Z,75.80
2018-11-06T21:41:15.226Z,75.80
2018-11-06T21:43:42.753Z,75.70
2018-11-06T21:46:11.006Z,75.70
2018-11-06T21:48:44.623Z,75.70
2018-11-06T21:51:18.337Z,75.60
2018-11-06T21:53:45.967Z,75.60
2018-11-06T21:56:19.661Z,75.60
2018-11-06T21:58:53.431Z,75.60
2018-11-06T22:01:20.912Z,75.60
2018-11-06T22:03:54.836Z,75.60
2018-11-06T22:06:24.449Z,75.50
2018-11-06T22:08:51.925Z,75.50
2018-11-06T22:11:19.344Z,75.40
2018-11-06T22:13:46.793Z,75.60
2018-11-06T22:16:15.368Z,75.60
2018-11-06T22:18:42.852Z,75.50
2018-11-06T22:21:10.236Z,75.50
2018-11-06T22:23:38.421Z,75.60
2018-11-06T22:26:05.959Z,75.70
2018-11-06T22:28:39.693Z,75.50
2018-11-06T22:31:07.142Z,75.40
2018-11-06T22:33:34.619Z,75.60
2018-11-06T22:36:02.267Z,75.60
2018-11-06T22:38:35.841Z,75.60
2018-11-06T22:41:03.252Z,75.60
2018-11-06T22:43:37.014Z,75.60
2018-11-06T22:46:04.501Z,75.80
2018-11-06T22:48:31.929Z,75.60
2018-11-06T22:50:59.942Z,75.60
2018-11-06T22:53:27.418Z,76.30
2018-11-06T22:55:54.833Z,75.50
2018-11-06T22:58:22.417Z,75.60
2018-11-06T23:00:55.510Z,75.30
2018-11-06T23:03:22.952Z,75.70
2018-11-06T23:05:51.080Z,75.60
2018-11-06T23:08:23.503Z,75.60
2018-11-06T23:10:51.052Z,75.60
2018-11-06T23:13:18.433Z,75.70
2018-11-06T23:15:45.772Z,75.60
2018-11-06T23:18:19.455Z,75.60
2018-11-06T23:20:46.946Z,75.70
2018-11-06T23:23:14.509Z,75.80
2018-11-06T23:25:41.917Z,75.80
2018-11-06T23:28:09.278Z,76.90
2018-11-06T23:30:36.673Z,76.90
2018-11-06T23:33:04.351Z,77.10
2018-11-06T23:35:36.906Z,77.10
2018-11-06T23:38:04.352Z,77.10
2018-11-06T23:40:31.688Z,77.20
2018-11-06T23:42:59.058Z,77.10
2018-11-06T23:45:28.545Z,77.10
2018-11-06T23:47:59.007Z,77.20
2018-11-06T23:50:32.795Z,77.20
2018-11-06T23:53:00.322Z,77.30
2018-11-06T23:55:27.685Z,77.40
2018-11-06T23:57:55.042Z,77.50
